Time;durP1;ratioP1;P1;durP2;ratioP2;P2;SDS_P1;SDS_P2;PMS_P1;PMS_P2;Temp;Humidity;BMP_temperature;BMP_pressure;BME280_temperature;BME280_humidity;BME280_pressure;Samples;Min_cycle;Max_cycle;Signal;HPM_P1;HPM_P2
2023/12/08 00:02:12;;;;;;;41.38;23.30;;;0.70;95.30;;;;;;5076099;28;20098;-54
2023/12/08 00:04:44;;;;;;;41.88;27.00;;;0.70;95.30;;;;;;5076529;28;20349;-57
2023/12/08 00:07:12;;;;;;;41.60;25.13;;;0.70;95.30;;;;;;5078063;28;20028;-56
2023/12/08 00:09:40;;;;;;;37.70;23.45;;;0.70;95.20;;;;;;5078269;28;20032;-53
2023/12/08 00:12:08;;;;;;;42.25;25.48;;;0.70;95.20;;;;;;5076958;28;20385;-56
2023/12/08 00:14:33;;;;;;;39.33;25.13;;;0.70;95.20;;;;;;5076385;28;20088;-55
2023/12/08 00:17:00;;;;;;;42.38;24.70;;;0.70;95.10;;;;;;5042193;28;20032;-55
2023/12/08 00:19:28;;;;;;;36.25;23.50;;;0.70;95.10;;;;;;5076826;28;20409;-54
2023/12/08 00:21:56;;;;;;;43.25;26.17;;;0.70;95.00;;;;;;5078016;28;20111;-52
2023/12/08 00:24:22;;;;;;;48.38;25.05;;;0.70;95.10;;;;;;5082029;28;20035;-53
2023/12/08 00:26:49;;;;;;;40.90;25.83;;;0.70;95.00;;;;;;5096693;28;20024;-55
2023/12/08 00:29:19;;;;;;;43.25;25.27;;;0.70;95.00;;;;;;5074121;28;20028;-51
2023/12/08 00:31:48;;;;;;;44.78;25.83;;;0.70;94.90;;;;;;5076323;28;20098;-51
2023/12/08 00:34:18;;;;;;;39.25;23.50;;;0.70;95.00;;;;;;5060067;28;20040;-54
2023/12/08 00:36:46;;;;;;;41.67;24.65;;;0.70;94.90;;;;;;5076054;28;20032;-55
2023/12/08 00:39:13;;;;;;;38.28;23.38;;;0.70;94.90;;;;;;5090207;28;20318;-53
2023/12/08 00:41:38;;;;;;;43.90;25.73;;;0.70;94.80;;;;;;5095989;28;20184;-54
2023/12/08 00:44:08;;;;;;;42.30;24.67;;;0.70;94.80;;;;;;5078191;28;20020;-57
2023/12/08 00:46:36;;;;;;;40.42;23.75;;;0.70;94.80;;;;;;5076193;28;20029;-56
2023/12/08 00:49:06;;;;;;;38.22;22.90;;;0.70;94.80;;;;;;5077109;28;20025;-57
2023/12/08 00:51:33;;;;;;;44.05;25.10;;;0.70;94.70;;;;;;5067327;28;20028;-58
2023/12/08 00:54:01;;;;;;;38.58;24.58;;;0.80;94.80;;;;;;5082507;28;20144;-56
2023/12/08 00:56:28;;;;;;;43.97;23.85;;;0.80;94.80;;;;;;5095855;28;20093;-56
2023/12/08 00:58:56;;;;;;;37.20;24.33;;;0.80;94.70;;;;;;5096084;28;20024;-52
2023/12/08 01:01:23;;;;;;;35.50;21.88;;;0.80;94.60;;;;;;5081633;28;20519;-53
2023/12/08 01:03:50;;;;;;;38.53;24.17;;;0.80;94.60;;;;;;5090087;28;20383;-53
2023/12/08 01:06:17;;;;;;;33.17;22.55;;;0.80;94.60;;;;;;5076026;28;20545;-54
2023/12/08 01:08:44;;;;;;;36.20;23.65;;;0.80;94.50;;;;;;5077439;28;20036;-53
2023/12/08 01:11:11;;;;;;;35.83;22.60;;;0.70;94.50;;;;;;5095665;28;20051;-55
2023/12/08 01:13:39;;;;;;;36.10;23.08;;;0.80;94.50;;;;;;5075783;28;20032;-56
2023/12/08 01:16:06;;;;;;;36.70;22.23;;;0.80;94.30;;;;;;5075495;28;20115;-53
2023/12/08 01:18:35;;;;;;;36.00;23.15;;;0.80;94.40;;;;;;5095158;28;20376;-55
2023/12/08 01:21:04;;;;;;;35.65;20.60;;;0.80;94.30;;;;;;5075819;28;20036;-56
2023/12/08 01:23:32;;;;;;;;;;;0.80;94.40;;;;;;5082284;28;20028;-53
2023/12/08 01:25:59;;;;;;;32.92;20.77;;;0.80;94.30;;;;;;5087426;28;19908;-54
2023/12/08 01:28:24;;;;;;;34.88;22.15;;;0.80;94.30;;;;;;5092929;28;20433;-52
2023/12/08 01:30:50;;;;;;;31.85;19.75;;;0.80;94.20;;;;;;5089975;28;20035;-54
2023/12/08 01:33:19;;;;;;;31.08;19.90;;;0.80;94.30;;;;;;5095412;28;20063;-53
2023/12/08 01:35:47;;;;;;;31.33;20.50;;;0.80;94.20;;;;;;5083471;28;20158;-53
2023/12/08 01:38:15;;;;;;;32.80;20.83;;;0.90;94.20;;;;;;5079042;28;20029;-53
2023/12/08 01:40:44;;;;;;;28.73;18.38;;;0.90;94.10;;;;;;5075063;28;20028;-53
2023/12/08 01:43:12;;;;;;;35.35;18.33;;;0.90;94.00;;;;;;5074795;28;20033;-54
2023/12/08 01:45:39;;;;;;;29.85;17.45;;;0.90;94.00;;;;;;5057416;28;20044;-57
2023/12/08 01:48:06;;;;;;;29.80;18.20;;;0.90;93.80;;;;;;5057499;28;20028;-54
2023/12/08 01:50:34;;;;;;;32.45;19.35;;;0.90;93.70;;;;;;5075186;28;20103;-55
2023/12/08 01:53:10;;;;;;;29.05;17.85;;;0.90;93.50;;;;;;5083989;28;20054;-52
2023/12/08 01:55:38;;;;;;;26.05;15.93;;;0.90;93.40;;;;;;5090951;28;20356;-53
2023/12/08 01:58:07;;;;;;;25.67;16.35;;;0.90;93.30;;;;;;5074725;28;20077;-55
2023/12/08 02:00:34;;;;;;;24.08;15.85;;;0.90;93.30;;;;;;5074078;28;20101;-56
2023/12/08 02:03:00;;;;;;;23.40;16.33;;;0.90;93.20;;;;;;5074260;28;20216;-55
2023/12/08 02:05:31;;;;;;;21.33;14.80;;;0.90;93.10;;;;;;5074697;28;20511;-56
2023/12/08 02:08:00;;;;;;;21.55;16.05;;;0.90;92.80;;;;;;5059074;28;20032;-58
2023/12/08 02:10:28;;;;;;;22.08;14.13;;;0.90;92.50;;;;;;5056577;28;20032;-54
2023/12/08 02:12:54;;;;;;;23.73;15.50;;;0.90;92.40;;;;;;5066913;28;20032;-53
2023/12/08 02:15:21;;;;;;;24.85;14.95;;;0.90;92.30;;;;;;5094328;28;20063;-55
2023/12/08 02:17:48;;;;;;;26.40;15.27;;;0.90;92.20;;;;;;5093107;28;20028;-54
2023/12/08 02:20:15;;;;;;;22.65;14.18;;;0.90;92.00;;;;;;5073948;28;20032;-57
2023/12/08 02:22:42;;;;;;;23.92;14.65;;;0.90;92.00;;;;;;5090095;28;20024;-52
2023/12/08 02:25:10;;;;;;;23.83;13.82;;;0.90;91.90;;;;;;5097758;28;20031;-54
2023/12/08 02:27:37;;;;;;;19.83;13.30;;;0.90;91.70;;;;;;5078546;28;20167;-52
2023/12/08 02:30:08;;;;;;;20.65;13.25;;;0.90;91.70;;;;;;5073320;28;20042;-52
2023/12/08 02:33:09;;;;;;;18.25;13.75;;;0.90;91.80;;;;;;5082289;28;20102;-55
2023/12/08 02:35:40;;;;;;;21.35;13.73;;;0.90;91.70;;;;;;5051394;28;20044;-54
2023/12/08 02:38:10;;;;;;;23.20;15.60;;;0.90;91.50;;;;;;5073626;28;20093;-56
2023/12/08 02:40:36;;;;;;;22.02;15.20;;;0.90;91.40;;;;;;5076142;28;20028;-54
2023/12/08 02:43:06;;;;;;;19.67;13.63;;;0.90;91.40;;;;;;5076329;28;20487;-55
2023/12/08 02:45:34;;;;;;;20.85;13.23;;;0.90;91.50;;;;;;5084189;28;20032;-58
2023/12/08 02:48:01;;;;;;;18.52;12.27;;;0.90;91.60;;;;;;5093919;28;20024;-54
2023/12/08 02:50:28;;;;;;;20.98;12.20;;;0.90;91.50;;;;;;5085314;28;20028;-54
2023/12/08 02:52:56;;;;;;;22.77;14.60;;;0.90;91.30;;;;;;5086202;28;20036;-57
2023/12/08 02:55:23;;;;;;;21.55;13.85;;;0.90;91.00;;;;;;5073438;28;20039;-56
2023/12/08 02:57:49;;;;;;;20.65;13.65;;;1.00;90.80;;;;;;5073432;28;20024;-59
2023/12/08 03:00:14;;;;;;;19.20;13.50;;;1.00;90.80;;;;;;5059209;28;20445;-54
2023/12/08 03:02:41;;;;;;;19.83;13.43;;;1.00;90.80;;;;;;5072928;28;20052;-59
2023/12/08 03:05:08;;;;;;;22.55;15.38;;;1.00;90.90;;;;;;5073122;28;20040;-57
2023/12/08 03:07:37;;;;;;;22.55;14.48;;;1.00;90.80;;;;;;5074295;28;20051;-58
2023/12/08 03:10:02;;;;;;;22.30;13.18;;;1.00;90.80;;;;;;5073571;28;20020;-58
2023/12/08 03:12:30;;;;;;;23.23;13.55;;;1.00;90.80;;;;;;5073606;28;20362;-56
2023/12/08 03:14:57;;;;;;;20.63;12.82;;;0.90;90.90;;;;;;5072858;28;20033;-54
2023/12/08 03:17:24;;;;;;;18.95;12.13;;;0.90;90.80;;;;;;5072859;28;20032;-55
2023/12/08 03:19:50;;;;;;;17.60;12.63;;;0.90;90.80;;;;;;5073618;28;20043;-57
2023/12/08 03:22:16;;;;;;;20.13;13.48;;;0.90;90.80;;;;;;5074641;28;20074;-57
2023/12/08 03:24:43;;;;;;;18.55;12.25;;;0.90;90.80;;;;;;5090208;28;20349;-57
2023/12/08 03:27:11;;;;;;;20.27;12.25;;;0.90;90.40;;;;;;5093156;28;20438;-58
2023/12/08 03:29:44;;;;;;;18.60;12.30;;;0.90;90.50;;;;;;5093345;28;20024;-59
2023/12/08 03:32:10;;;;;;;18.58;12.40;;;1.00;90.60;;;;;;5085668;28;20457;-59
2023/12/08 03:34:38;;;;;;;17.92;12.80;;;0.90;90.70;;;;;;5055257;28;20047;-60
2023/12/08 03:37:07;;;;;;;18.23;13.25;;;0.90;90.80;;;;;;5091106;28;20035;-58
2023/12/08 03:39:33;;;;;;;19.60;11.95;;;0.90;90.90;;;;;;5083672;28;20024;-60
2023/12/08 03:42:00;;;;;;;21.23;12.63;;;0.90;91.00;;;;;;5072908;28;20029;-59
2023/12/08 03:44:27;;;;;;;18.33;12.43;;;0.90;91.00;;;;;;5072926;28;20020;-58
2023/12/08 03:46:54;;;;;;;16.70;11.93;;;0.90;91.10;;;;;;5071655;28;20028;-58
2023/12/08 03:49:20;;;;;;;16.55;12.43;;;0.90;91.30;;;;;;5078253;28;20026;-60
2023/12/08 03:51:48;;;;;;;20.13;13.43;;;0.80;91.30;;;;;;5092858;28;20445;-59
2023/12/08 03:54:17;;;;;;;20.80;13.40;;;0.90;91.20;;;;;;5075181;28;20123;-60
2023/12/08 03:56:44;;;;;;;18.20;11.45;;;0.90;91.10;;;;;;5093001;28;20028;-60
2023/12/08 03:59:15;;;;;;;17.50;12.07;;;0.80;91.10;;;;;;5075998;28;20091;-59
2023/12/08 04:01:45;;;;;;;17.75;12.93;;;0.80;91.10;;;;;;5071846;28;20473;-60
2023/12/08 04:04:12;;;;;;;17.08;11.15;;;0.90;91.20;;;;;;5073747;28;20413;-57
2023/12/08 04:06:41;;;;;;;16.35;11.18;;;0.90;91.20;;;;;;5092621;28;20113;-60
2023/12/08 04:09:07;;;;;;;16.98;12.52;;;0.90;91.10;;;;;;5092906;28;20382;-60
2023/12/08 04:11:35;;;;;;;17.70;12.35;;;0.90;91.00;;;;;;5056748;28;20035;-58
2023/12/08 04:14:02;;;;;;;15.85;9.93;;;0.90;90.90;;;;;;5092675;28;20043;-58
2023/12/08 04:16:30;;;;;;;15.57;11.50;;;0.90;90.80;;;;;;5071491;28;20570;-57
2023/12/08 04:18:57;;;;;;;20.17;12.57;;;0.90;90.70;;;;;;5072657;28;20052;-60
2023/12/08 04:21:25;;;;;;;16.30;10.80;;;0.90;90.50;;;;;;5077378;28;20141;-60
2023/12/08 04:23:52;;;;;;;17.38;11.05;;;0.90;90.60;;;;;;5082376;28;20024;-60
2023/12/08 04:26:24;;;;;;;15.45;11.25;;;0.90;90.40;;;;;;5092456;28;20073;-60
2023/12/08 04:28:54;;;;;;;19.08;12.57;;;0.90;90.50;;;;;;5072633;28;20044;-59
2023/12/08 04:31:23;;;;;;;17.60;11.18;;;0.90;90.50;;;;;;5055548;28;20613;-61
2023/12/08 04:33:54;;;;;;;16.92;11.63;;;0.90;90.50;;;;;;5072478;28;20041;-60
2023/12/08 04:36:21;;;;;;;19.80;11.80;;;0.90;90.50;;;;;;5055705;28;20040;-60
2023/12/08 04:38:48;;;;;;;17.42;11.90;;;0.90;90.50;;;;;;5071459;28;20039;-62
2023/12/08 04:41:16;;;;;;;17.55;11.50;;;0.90;90.40;;;;;;5072210;28;20527;-61
2023/12/08 04:43:42;;;;;;;17.30;11.52;;;0.90;90.40;;;;;;5073652;28;20040;-61
2023/12/08 04:46:10;;;;;;;15.55;11.05;;;0.90;90.30;;;;;;5076115;28;20047;-59
2023/12/08 04:48:39;;;;;;;16.17;10.38;;;0.90;90.30;;;;;;5076020;28;20032;-61
2023/12/08 04:51:06;;;;;;;16.60;11.38;;;0.90;90.10;;;;;;5069733;28;20059;-61
2023/12/08 04:53:34;;;;;;;18.13;10.63;;;0.90;89.90;;;;;;5096020;28;20020;-59
2023/12/08 04:56:03;;;;;;;15.25;10.43;;;0.90;89.60;;;;;;5095078;28;20085;-58
2023/12/08 04:58:32;;;;;;;14.82;10.95;;;0.90;89.80;;;;;;5078192;28;20471;-59
2023/12/08 05:00:59;;;;;;;16.73;11.77;;;0.90;89.80;;;;;;5095752;28;20035;-59
2023/12/08 05:03:27;;;;;;;14.93;11.40;;;0.90;89.80;;;;;;5085676;28;20408;-60
2023/12/08 05:05:53;;;;;;;17.58;11.38;;;0.90;89.80;;;;;;5076721;28;20024;-61
2023/12/08 05:08:22;;;;;;;14.45;10.35;;;0.90;89.90;;;;;;5075402;28;20119;-61
2023/12/08 05:10:50;;;;;;;17.67;11.65;;;0.90;90.00;;;;;;5075791;28;20340;-61
2023/12/08 05:13:19;;;;;;;15.05;11.00;;;0.90;90.10;;;;;;5076933;28;20029;-61
2023/12/08 05:15:47;;;;;;;14.88;10.30;;;0.90;90.10;;;;;;5057605;28;20038;-59
2023/12/08 05:18:12;;;;;;;15.27;10.80;;;0.90;90.10;;;;;;5057347;28;20044;-61
2023/12/08 05:20:42;;;;;;;15.30;10.75;;;0.90;90.10;;;;;;5078052;28;20135;-60
2023/12/08 05:23:09;;;;;;;15.18;11.13;;;0.90;90.10;;;;;;5094516;28;20031;-61
2023/12/08 05:25:36;;;;;;;17.38;11.25;;;0.90;89.90;;;;;;5074592;28;20130;-61
2023/12/08 05:28:03;;;;;;;16.40;10.63;;;0.90;89.80;;;;;;5074366;28;20033;-61
2023/12/08 05:30:28;;;;;;;14.57;10.38;;;0.90;90.00;;;;;;5074702;28;20124;-60
2023/12/08 05:32:58;;;;;;;15.18;10.07;;;0.90;89.90;;;;;;5078609;28;20095;-61
2023/12/08 05:35:28;;;;;;;14.80;10.25;;;0.90;89.70;;;;;;5094735;28;20096;-61
2023/12/08 05:37:55;;;;;;;16.92;11.68;;;0.90;89.80;;;;;;5082095;28;20037;-61
2023/12/08 05:40:23;;;;;;;15.55;10.80;;;0.90;89.60;;;;;;5057231;28;20082;-61
2023/12/08 05:42:55;;;;;;;17.25;12.60;;;0.90;89.70;;;;;;5084421;28;20028;-62
2023/12/08 05:45:21;;;;;;;19.80;13.77;;;0.90;89.80;;;;;;5095008;28;20024;-62
2023/12/08 05:47:47;;;;;;;16.73;12.77;;;0.90;89.80;;;;;;5080184;28;20035;-61
2023/12/08 05:50:14;;;;;;;17.85;11.77;;;0.90;90.10;;;;;;5074916;28;20037;-62
2023/12/08 05:52:41;;;;;;;17.95;12.43;;;0.90;90.00;;;;;;5076273;28;20075;-62
2023/12/08 05:55:09;;;;;;;16.35;11.15;;;0.90;89.90;;;;;;5073604;28;20044;-61
2023/12/08 05:57:39;;;;;;;17.33;10.98;;;0.90;89.70;;;;;;5074637;28;20472;-62
2023/12/08 06:00:12;;;;;;;14.68;10.48;;;0.90;89.70;;;;;;5075206;28;20072;-61
2023/12/08 06:02:39;;;;;;;17.90;10.93;;;0.90;89.70;;;;;;5070588;28;20362;-61
2023/12/08 06:05:05;;;;;;;15.98;11.45;;;0.90;89.90;;;;;;5094467;28;20046;-61
2023/12/08 06:07:33;;;;;;;15.70;11.40;;;0.90;90.10;;;;;;5085420;28;20467;-61
2023/12/08 06:10:01;;;;;;;16.48;12.07;;;0.90;90.10;;;;;;5092285;28;20043;-61
2023/12/08 06:12:28;;;;;;;17.27;10.88;;;0.90;90.20;;;;;;5094131;28;20040;-61
2023/12/08 06:14:59;;;;;;;16.23;11.93;;;0.90;90.20;;;;;;5093463;28;20388;-61
2023/12/08 06:17:27;;;;;;;18.38;11.50;;;0.90;90.10;;;;;;5094783;28;20389;-61
2023/12/08 06:19:56;;;;;;;18.98;12.52;;;0.90;90.00;;;;;;5069130;28;20036;-61
2023/12/08 06:22:26;;;;;;;17.23;12.35;;;0.90;90.10;;;;;;5039551;28;20029;-61
2023/12/08 06:24:51;;;;;;;16.67;11.85;;;0.90;90.00;;;;;;5092701;28;20023;-62
2023/12/08 06:27:18;;;;;;;17.35;11.68;;;0.90;89.70;;;;;;5094134;28;20082;-62
2023/12/08 06:29:45;;;;;;;16.25;11.20;;;0.90;89.70;;;;;;5093943;28;20032;-62
2023/12/08 06:32:13;;;;;;;16.30;11.90;;;0.90;89.60;;;;;;5093715;28;20417;-62
2023/12/08 06:34:41;;;;;;;16.45;11.20;;;0.90;89.70;;;;;;5094317;28;20028;-62
2023/12/08 06:37:08;;;;;;;20.92;13.82;;;0.90;89.80;;;;;;5077086;28;20029;-62
2023/12/08 06:39:39;;;;;;;18.27;12.32;;;0.90;89.80;;;;;;5073520;28;20036;-62
2023/12/08 06:42:08;;;;;;;17.73;12.05;;;0.90;90.10;;;;;;5073557;28;20108;-61
2023/12/08 06:44:35;;;;;;;19.83;13.80;;;0.90;90.30;;;;;;5084107;28;20590;-62
2023/12/08 06:47:04;;;;;;;18.77;13.25;;;0.90;90.20;;;;;;5094081;28;20028;-61
2023/12/08 06:49:31;;;;;;;15.48;11.73;;;0.90;90.10;;;;;;5075620;28;20029;-62
2023/12/08 06:51:58;;;;;;;22.42;13.15;;;0.90;90.10;;;;;;5082507;28;20457;-62
2023/12/08 06:54:25;;;;;;;18.15;12.13;;;0.90;90.00;;;;;;5055653;28;20035;-62
2023/12/08 06:56:52;;;;;;;21.95;13.77;;;0.90;90.10;;;;;;5063225;28;20120;-61
2023/12/08 06:59:19;;;;;;;18.23;12.85;;;0.90;90.00;;;;;;5073354;28;20024;-61
2023/12/08 07:01:47;;;;;;;22.40;15.27;;;0.90;90.00;;;;;;5073786;28;20502;-61
2023/12/08 07:04:14;;;;;;;21.38;14.35;;;0.90;89.90;;;;;;5073201;28;20465;-61
2023/12/08 07:06:44;;;;;;;20.85;14.18;;;0.90;89.90;;;;;;5081598;28;20040;-61
2023/12/08 07:09:13;;;;;;;17.23;12.23;;;0.90;89.90;;;;;;5093486;28;20047;-61
2023/12/08 07:11:41;;;;;;;20.88;13.57;;;0.90;90.00;;;;;;5075840;28;20024;-62
2023/12/08 07:14:09;;;;;;;19.42;12.77;;;0.90;90.00;;;;;;5084516;28;20054;-61
2023/12/08 07:16:36;;;;;;;17.42;11.82;;;0.90;89.90;;;;;;5073258;28;20362;-61
2023/12/08 07:19:06;;;;;;;20.40;13.40;;;0.90;89.70;;;;;;5056768;28;20032;-60
2023/12/08 07:21:33;;;;;;;17.98;12.43;;;1.00;89.70;;;;;;5080526;28;20024;-60
2023/12/08 07:24:16;;;;;;;19.25;13.30;;;0.90;89.60;;;;;;5102799;28;20043;-59
2023/12/08 07:26:43;;;;;;;19.02;13.10;;;0.90;89.70;;;;;;5095698;28;20032;-60
2023/12/08 07:29:11;;;;;;;19.13;13.32;;;0.90;89.70;;;;;;5073077;28;20068;-60
2023/12/08 07:31:42;;;;;;;20.00;12.73;;;1.00;90.00;;;;;;5072935;28;20107;-61
2023/12/08 07:34:09;;;;;;;24.17;15.20;;;1.00;90.00;;;;;;5073145;28;20025;-59
2023/12/08 07:36:36;;;;;;;19.75;13.68;;;0.90;89.90;;;;;;5089719;28;20487;-60
2023/12/08 07:39:09;;;;;;;22.15;15.65;;;1.00;89.90;;;;;;5089382;28;20059;-60
2023/12/08 07:41:37;;;;;;;21.33;14.27;;;1.00;90.00;;;;;;5072808;28;20025;-61
2023/12/08 07:44:04;;;;;;;20.67;14.65;;;0.90;90.10;;;;;;5072660;28;20103;-62
2023/12/08 07:46:31;;;;;;;20.60;15.38;;;0.90;90.10;;;;;;5076471;28;20028;-61
2023/12/08 07:48:59;;;;;;;21.20;14.55;;;0.90;90.10;;;;;;5073036;28;20035;-60
2023/12/08 07:51:26;;;;;;;20.35;13.60;;;1.00;90.00;;;;;;5085692;28;20055;-60
2023/12/08 07:53:55;;;;;;;20.17;14.10;;;1.00;89.80;;;;;;5076417;28;20398;-60
2023/12/08 07:56:22;;;;;;;19.92;13.68;;;1.00;89.70;;;;;;5075176;28;20416;-61
2023/12/08 07:58:51;;;;;;;22.38;13.85;;;1.00;89.90;;;;;;5071700;28;20071;-61
2023/12/08 08:01:19;;;;;;;21.33;14.68;;;1.00;89.80;;;;;;5081986;28;20059;-59
2023/12/08 08:03:46;;;;;;;20.25;14.52;;;1.00;89.80;;;;;;5092679;28;20043;-61
2023/12/08 08:06:13;;;;;;;21.75;13.68;;;1.00;89.80;;;;;;5078661;28;20036;-61
2023/12/08 08:08:40;;;;;;;23.83;15.68;;;1.00;89.90;;;;;;5054850;28;20043;-61
2023/12/08 08:11:07;;;;;;;19.42;14.13;;;1.00;89.90;;;;;;5072605;28;20062;-62
2023/12/08 08:13:33;;;;;;;20.92;14.77;;;1.00;89.80;;;;;;5072572;28;20032;-62
2023/12/08 08:16:06;;;;;;;22.33;15.07;;;1.00;89.80;;;;;;5091648;28;20040;-63
2023/12/08 08:18:33;;;;;;;23.58;14.93;;;1.00;89.90;;;;;;5089929;28;20032;-63
2023/12/08 08:21:02;;;;;;;20.55;13.93;;;1.00;89.90;;;;;;5085019;28;20096;-62
2023/12/08 08:23:28;;;;;;;22.50;15.10;;;1.00;90.10;;;;;;5081277;28;20037;-63
2023/12/08 08:25:55;;;;;;;22.55;14.30;;;1.00;90.20;;;;;;5096211;28;20269;-62
2023/12/08 08:28:21;;;;;;;22.27;14.65;;;1.00;90.30;;;;;;5081460;28;20017;-61
2023/12/08 08:30:51;;;;;;;23.00;14.20;;;0.90;90.60;;;;;;5075363;28;20029;-61
2023/12/08 08:33:19;;;;;;;22.08;14.40;;;1.00;90.80;;;;;;5081184;28;20036;-61
2023/12/08 08:35:47;;;;;;;22.02;15.48;;;0.90;91.00;;;;;;5096215;28;20380;-61
2023/12/08 08:38:15;;;;;;;25.10;16.70;;;0.90;91.20;;;;;;5096417;28;20101;-62
2023/12/08 08:40:43;;;;;;;24.95;15.18;;;0.90;91.40;;;;;;5091252;28;20111;-62
2023/12/08 08:43:11;;;;;;;25.13;16.13;;;0.90;91.60;;;;;;5076020;28;20025;-63
2023/12/08 08:45:37;;;;;;;27.30;17.67;;;0.90;91.90;;;;;;5076225;28;20021;-62
2023/12/08 08:48:03;;;;;;;26.27;16.90;;;0.90;92.00;;;;;;5068427;28;20046;-61
2023/12/08 08:50:30;;;;;;;25.88;17.00;;;0.90;92.10;;;;;;5080252;28;20024;-62
2023/12/08 08:53:00;;;;;;;25.45;15.90;;;0.90;92.40;;;;;;5085141;28;20027;-62
2023/12/08 08:55:29;;;;;;;23.55;16.83;;;0.90;92.50;;;;;;5094330;28;20039;-62
2023/12/08 08:57:55;;;;;;;24.05;17.80;;;0.80;92.60;;;;;;5084355;28;20059;-61
2023/12/08 09:00:26;;;;;;;27.17;17.67;;;0.80;92.70;;;;;;5092906;28;20047;-63
2023/12/08 09:02:54;;;;;;;26.95;17.25;;;0.80;93.00;;;;;;5075239;28;20045;-62
2023/12/08 09:05:21;;;;;;;25.25;16.20;;;0.90;93.00;;;;;;5069882;28;20025;-62
2023/12/08 09:07:49;;;;;;;30.45;18.42;;;0.80;93.20;;;;;;5021270;28;20033;-63
2023/12/08 09:10:14;;;;;;;29.35;18.40;;;0.80;93.20;;;;;;5055336;28;20423;-63
2023/12/08 09:12:42;;;;;;;24.67;16.25;;;0.80;93.40;;;;;;5037992;28;20087;-63
2023/12/08 09:15:11;;;;;;;25.92;17.15;;;0.80;93.50;;;;;;5056862;28;20806;-62
2023/12/08 09:17:39;;;;;;;;;;;0.80;93.50;;;;;;5068029;28;20064;-61
2023/12/08 09:20:07;;;;;;;26.80;15.65;;;0.80;93.60;;;;;;5075476;28;19905;-61
2023/12/08 09:22:35;;;;;;;29.30;17.30;;;0.90;93.60;;;;;;5075213;28;20062;-61
2023/12/08 09:25:06;;;;;;;24.80;16.45;;;0.80;93.60;;;;;;5057877;28;20033;-61
2023/12/08 09:27:34;;;;;;;29.45;17.48;;;0.90;93.50;;;;;;5048029;28;20025;-62
2023/12/08 09:29:59;;;;;;;29.13;18.33;;;0.80;93.70;;;;;;5055460;28;20068;-63
2023/12/08 09:32:27;;;;;;;29.45;16.85;;;0.80;93.70;;;;;;5063121;28;20056;-59
2023/12/08 09:34:55;;;;;;;26.75;18.75;;;0.80;93.70;;;;;;5048230;28;20095;-61
2023/12/08 09:37:22;;;;;;;24.95;16.38;;;0.80;93.80;;;;;;5037398;28;20025;-60
2023/12/08 09:39:52;;;;;;;26.27;18.35;;;0.80;93.80;;;;;;5055629;28;20024;-60
2023/12/08 09:42:36;;;;;;;29.48;17.33;;;0.80;93.80;;;;;;5075006;28;20059;-58
2023/12/08 09:45:09;;;;;;;28.38;17.38;;;0.80;93.90;;;;;;5056467;28;20025;-60
2023/12/08 09:47:36;;;;;;;28.02;17.98;;;0.90;93.90;;;;;;5046780;28;20462;-60
2023/12/08 09:50:06;;;;;;;26.48;18.35;;;0.80;93.80;;;;;;5060873;28;20044;-58
2023/12/08 09:52:35;;;;;;;28.35;18.13;;;0.90;94.00;;;;;;5054747;28;20029;-58
2023/12/08 09:55:01;;;;;;;24.27;17.02;;;0.90;93.90;;;;;;5062553;28;20028;-59
2023/12/08 09:57:41;;;;;;;26.17;16.40;;;0.90;93.90;;;;;;5074903;28;20461;-60
2023/12/08 10:00:11;;;;;;;27.17;17.02;;;0.90;93.90;;;;;;5060253;28;20041;-60
2023/12/08 10:02:39;;;;;;;25.83;16.17;;;0.90;93.90;;;;;;5048667;28;20049;-60
2023/12/08 10:05:06;;;;;;;26.42;17.75;;;0.90;93.90;;;;;;5066236;28;20032;-59
2023/12/08 10:07:35;;;;;;;25.45;16.52;;;0.90;93.80;;;;;;5056160;28;20131;-60
2023/12/08 10:10:11;;;;;;;24.90;16.58;;;0.90;93.90;;;;;;5055249;28;20111;-59
2023/12/08 10:12:43;;;;;;;25.45;17.52;;;0.90;93.70;;;;;;5055747;28;20037;-60
2023/12/08 10:15:13;;;;;;;29.10;16.80;;;0.90;93.80;;;;;;5053124;28;20108;-57
2023/12/08 10:17:53;;;;;;;27.23;18.38;;;0.90;93.80;;;;;;5069887;28;20021;-59
2023/12/08 10:20:23;;;;;;;28.55;18.10;;;0.90;94.00;;;;;;5051161;28;20358;-58
2023/12/08 10:22:57;;;;;;;28.75;18.52;;;0.90;93.90;;;;;;5039996;28;20061;-58
2023/12/08 10:25:26;;;;;;;29.20;17.65;;;1.00;93.90;;;;;;5073944;28;20035;-58
2023/12/08 10:27:56;;;;;;;28.60;19.00;;;0.90;94.00;;;;;;5074034;28;20020;-57
2023/12/08 10:30:24;;;;;;;30.08;18.25;;;1.00;93.90;;;;;;5072636;28;20371;-58
2023/12/08 10:32:53;;;;;;;28.67;17.70;;;1.00;93.90;;;;;;5053171;28;20524;-58
2023/12/08 10:35:21;;;;;;;31.45;19.95;;;1.00;93.90;;;;;;5036338;28;20102;-59
2023/12/08 10:37:46;;;;;;;31.25;19.05;;;1.00;93.70;;;;;;5036204;28;20045;-60
2023/12/08 10:40:17;;;;;;;26.88;18.88;;;1.00;93.70;;;;;;5054719;28;20090;-59
2023/12/08 10:42:47;;;;;;;30.50;18.65;;;1.00;93.70;;;;;;5053664;28;20060;-58
2023/12/08 10:45:16;;;;;;;28.23;18.50;;;1.00;93.70;;;;;;5049111;28;20043;-59
2023/12/08 10:47:49;;;;;;;28.55;17.73;;;1.00;93.60;;;;;;5056155;28;20050;-60
2023/12/08 10:50:18;;;;;;;27.35;17.20;;;1.00;93.80;;;;;;5052549;28;20500;-59
2023/12/08 10:52:50;;;;;;;28.52;19.30;;;1.00;93.70;;;;;;5042794;28;20032;-58
2023/12/08 10:55:20;;;;;;;29.85;19.58;;;1.00;93.70;;;;;;5055893;28;20032;-59
2023/12/08 10:57:53;;;;;;;30.70;19.92;;;1.00;93.60;;;;;;5073674;28;20032;-56
2023/12/08 11:00:24;;;;;;;26.08;17.67;;;1.00;93.60;;;;;;5026020;28;20036;-59
2023/12/08 11:02:49;;;;;;;29.08;18.75;;;1.00;93.60;;;;;;5051760;28;20083;-57
2023/12/08 11:05:48;;;;;;;27.33;18.65;;;0.90;93.60;;;;;;5092771;28;20024;-58
2023/12/08 11:08:18;;;;;;;27.83;18.20;;;1.00;93.60;;;;;;5048850;28;20036;-57
2023/12/08 11:10:52;;;;;;;26.17;17.65;;;1.00;93.70;;;;;;5072169;28;20040;-59
2023/12/08 11:13:42;;;;;;;25.45;18.33;;;1.10;93.80;;;;;;5038625;28;20127;-57
2023/12/08 11:16:29;;;;;;;28.25;17.88;;;1.00;93.70;;;;;;5073793;28;20040;-58
2023/12/08 11:18:58;;;;;;;30.70;19.45;;;1.10;93.70;;;;;;5078208;28;20031;-57
2023/12/08 11:21:36;;;;;;;26.50;17.38;;;1.10;93.70;;;;;;5072413;28;20044;-54
2023/12/08 11:24:07;;;;;;;25.92;17.45;;;1.10;93.80;;;;;;5095603;28;20059;-57
2023/12/08 11:27:01;;;;;;;28.63;19.35;;;1.10;93.70;;;;;;5092001;28;20039;-54
2023/12/08 11:29:44;;;;;;;26.30;18.58;;;1.10;93.70;;;;;;5090001;28;20024;-54
2023/12/08 11:32:53;;;;;;;25.98;18.45;;;1.10;93.70;;;;;;5072662;28;20028;-59
2023/12/08 11:35:21;;;;;;;30.53;19.33;;;1.00;93.70;;;;;;5052793;28;20150;-55
2023/12/08 11:37:49;;;;;;;26.35;17.10;;;1.10;93.70;;;;;;5072853;28;20119;-55
2023/12/08 11:40:18;;;;;;;27.02;18.40;;;1.20;93.90;;;;;;5055240;28;20032;-56
2023/12/08 11:42:50;;;;;;;28.20;18.95;;;1.10;93.80;;;;;;5089298;28;20024;-56
2023/12/08 11:45:19;;;;;;;27.10;18.92;;;1.20;93.90;;;;;;5081602;28;20447;-58
2023/12/08 11:47:46;;;;;;;26.77;18.85;;;1.20;93.80;;;;;;5074471;28;20024;-58
2023/12/08 11:50:13;;;;;;;27.42;19.10;;;1.20;93.80;;;;;;5086087;28;20373;-51
2023/12/08 11:52:42;;;;;;;28.42;18.88;;;1.30;93.80;;;;;;5069024;28;20112;-58
2023/12/08 11:55:24;;;;;;;27.08;17.65;;;1.20;93.80;;;;;;5042422;28;20396;-58
2023/12/08 11:58:02;;;;;;;28.02;18.63;;;1.20;93.70;;;;;;5077263;28;20936;-53
2023/12/08 12:00:33;;;;;;;30.10;20.20;;;1.20;93.70;;;;;;5072955;28;20144;-57
2023/12/08 12:03:03;;;;;;;26.25;18.50;;;1.20;93.60;;;;;;5096850;28;20083;-58
2023/12/08 12:05:30;;;;;;;26.10;18.45;;;1.20;93.70;;;;;;5058693;28;20089;-56
2023/12/08 12:07:58;;;;;;;31.17;18.50;;;1.20;93.80;;;;;;5076315;28;20029;-54
2023/12/08 12:10:44;;;;;;;29.13;19.92;;;1.30;93.70;;;;;;5076544;28;20024;-53
2023/12/08 12:13:12;;;;;;;29.58;19.35;;;1.30;93.80;;;;;;5078270;28;20036;-58
2023/12/08 12:15:41;;;;;;;27.33;19.20;;;1.40;93.70;;;;;;5076765;28;20036;-52
2023/12/08 12:18:13;;;;;;;28.48;18.60;;;1.30;93.60;;;;;;5059001;28;20033;-56
2023/12/08 12:20:40;;;;;;;29.50;20.85;;;1.30;93.70;;;;;;5078546;28;20115;-55
2023/12/08 12:23:08;;;;;;;27.60;17.83;;;1.30;93.60;;;;;;5079960;28;20032;-57
2023/12/08 12:25:34;;;;;;;28.35;19.00;;;1.30;93.60;;;;;;5096583;28;20029;-55
2023/12/08 12:28:02;;;;;;;25.38;18.50;;;1.40;93.70;;;;;;5096523;28;20099;-56
2023/12/08 12:30:31;;;;;;;29.23;19.70;;;1.40;93.70;;;;;;5085629;28;20024;-55
2023/12/08 12:32:58;;;;;;;32.58;22.23;;;1.40;93.70;;;;;;5076819;28;20028;-55
2023/12/08 12:35:26;;;;;;;28.83;20.17;;;1.40;93.60;;;;;;5089691;28;20545;-55
2023/12/08 12:37:57;;;;;;;27.30;19.05;;;1.40;93.50;;;;;;5057652;28;20405;-52
2023/12/08 12:40:27;;;;;;;30.85;20.13;;;1.40;93.70;;;;;;5076382;28;20055;-53
2023/12/08 12:42:54;;;;;;;28.48;19.45;;;1.40;93.60;;;;;;5074694;28;20063;-51
2023/12/08 12:45:39;;;;;;;28.85;19.88;;;1.30;93.60;;;;;;5070188;28;20105;-53
2023/12/08 12:48:24;;;;;;;29.08;19.85;;;1.40;93.60;;;;;;5075852;28;20060;-53